Latest Weather Observations for Cowra

IDN60801

Issued at 7:35 pm EST Friday 25 April 2014 (issued every 30 minutes, with the page automatically refreshed every 10 minutes)

About weather observations | Map of weather stations | Latest weather observations for NSW | Other Formats
Station Details ID: 065111 Name: COWRA AIRPORT AWS Lat: -33.84 Lon: 148.65 Height: 296.5 m
Data from the previous 72 hours. | See also: Recent months at Cowra
Date/Time
EST
Temp
°C
App
Temp
°C
Dew
Point
Rel
Hum
%
Delta-T
°C
Wind Press
QNH
hPa
Press
MSL
hPa
Rain
since 9 am
mm
Dir
 
Spd
km/h
Gust
km/h
Spd
kts
Gust
kts
25/07:30pm 18.2 16.5 12.4 69 3.3 ENE 13 20 7 11 1016.6 - 4.0
25/07:00pm 18.5 16.1 12.7 69 3.3 ENE 17 24 9 13 1016.5 - 4.0
25/06:30pm 18.2 17.2 13.3 73 2.8 E 11 15 6 8 1016.2 - 4.0
25/06:00pm 18.0 16.9 13.1 73 2.8 E 11 15 6 8 1016.0 1015.7 4.0
25/05:30pm 18.3 16.8 13.2 72 2.9 E 13 17 7 9 1016.0 - 4.0
25/05:00pm 19.5 16.6 12.3 63 4.1 ESE 19 30 10 16 1015.8 - 4.0
25/04:30pm 20.1 17.8 14.2 69 3.5 E 19 28 10 15 1015.8 - 4.0
25/04:00pm 18.8 17.8 14.7 77 2.4 ENE 13 19 7 10 1016.2 - 3.8
25/03:30pm 21.7 19.3 12.8 57 5.1 NNE 17 24 9 13 1016.1 - 0.0
25/03:00pm 23.0 20.8 12.0 50 6.3 NNE 15 20 8 11 1016.1 1015.8 0.0
25/02:30pm 25.0 22.2 12.6 46 7.2 N 19 30 10 16 1016.3 - 0.0
25/02:00pm 23.4 22.3 12.1 49 6.5 ENE 9 13 5 7 1016.5 - 0.0
25/01:30pm 23.5 20.9 11.9 48 6.6 NNE 17 22 9 12 1016.8 - 0.0
25/01:00pm 24.5 21.9 13.1 49 6.7 NNE 19 22 10 12 1017.2 - 0.0
25/12:30pm 24.8 23.2 12.7 47 7.1 NNE 13 19 7 10 1017.9 - 0.0
25/12:00pm 24.0 21.7 11.7 46 7.0 NE 15 24 8 13 1018.6 1018.4 0.0
25/11:30am 23.2 21.7 13.1 53 5.9 ESE 13 20 7 11 1019.2 - 0.0
25/11:00am 21.6 20.2 12.2 55 5.4 ESE 11 19 6 10 1019.8 - 0.0
25/10:30am 20.4 18.2 12.1 59 4.7 SSE 15 19 8 10 1020.3 - 0.0
25/10:00am 19.2 17.0 12.0 63 4.0 SSE 15 17 8 9 1020.6 - 0.0
25/09:30am 18.0 15.7 11.6 66 3.5 SSE 15 20 8 11 1020.8 - 0.0
25/09:00am 16.3 14.9 11.0 71 2.9 SE 9 15 5 8 1020.9 1020.7 0.0
25/08:30am 14.4 12.7 10.0 75 2.3 SE 9 13 5 7 1020.7 - 0.0
25/08:00am 12.6 11.1 9.2 80 1.7 SE 7 9 4 5 1020.4 - 0.0
25/07:30am 9.6 9.1 8.0 90 0.8 CALM 0 0 0 0 1020.1 - 0.0
25/07:00am 8.8 8.3 7.9 94 0.4 CALM 0 0 0 0 1019.7 - 0.0
25/06:30am 7.4 5.6 5.4 87 0.9 S 4 7 2 4 1019.4 - 0.0
25/06:00am 9.4 7.0 6.8 84 1.2 S 9 11 5 6 1018.9 1018.7 0.0
25/05:30am 9.0 6.0 6.1 82 1.4 SSE 11 13 6 7 1018.7 - 0.0
25/05:00am 7.7 5.0 5.7 87 0.9 S 9 11 5 6 1018.6 - 0.0
25/04:30am 8.9 6.2 5.8 81 1.4 SSE 9 11 5 6 1018.2 - 0.0
25/04:00am 8.8 6.7 6.6 86 1.0 SSE 7 9 4 5 1018.0 - 0.0
25/03:30am 7.0 4.8 3.4 78 1.6 SSE 4 7 2 4 1018.2 - 0.0
25/03:00am 9.7 7.1 6.1 78 1.7 SE 9 13 5 7 1018.2 1018.0 0.0
25/02:30am 9.9 7.0 6.6 80 1.6 SE 11 13 6 7 1018.3 - 0.0
25/02:00am 7.5 6.4 5.0 84 1.1 CALM 0 0 0 0 1018.3 - 0.0
25/01:30am 8.7 7.3 5.4 80 1.5 SSE 2 7 1 4 1018.4 - 0.0
25/01:00am 8.9 8.1 6.3 84 1.2 CALM 0 0 0 0 1018.6 - 0.0
25/12:30am 8.9 6.5 5.3 78 1.6 SSE 7 9 4 5 1018.6 - 0.0
25/12:00am 11.9 9.5 6.8 71 2.5 SE 9 11 5 6 1018.7 1018.5 0.0
 
Date/Time
EST
Temp
°C
App
Temp
°C
Dew
Point
Rel
Hum
%
Delta-T
°C
Wind Press
QNH
hPa
Press
MSL
hPa
Rain
since 9 am
mm
Dir
 
Spd
km/h
Gust
km/h
Spd
kts
Gust
kts
24/11:30pm 10.3 8.1 6.1 75 2.0 ESE 7 9 4 5 1018.6 - 0.0
24/11:00pm 12.3 10.2 6.8 69 2.7 SSE 7 9 4 5 1018.6 - 0.0
24/10:30pm 12.3 10.5 7.0 70 2.6 SSE 6 7 3 4 1018.7 - 0.0
24/10:00pm 12.6 10.5 6.6 67 2.9 SSE 7 9 4 5 1018.7 - 0.0
24/09:30pm 13.5 11.5 7.1 65 3.2 SSE 7 7 4 4 1018.6 - 0.0
24/09:00pm 13.7 11.9 7.2 65 3.2 SE 6 9 3 5 1018.3 1018.1 0.0
24/08:30pm 15.4 13.3 8.2 62 3.7 SE 9 13 5 7 1018.1 - 0.0
24/08:00pm 15.3 13.4 9.0 66 3.3 SE 9 11 5 6 1017.7 - 0.0
24/07:30pm 16.7 15.0 9.9 64 3.6 SSE 9 13 5 7 1017.3 - 0.0
24/07:00pm 16.1 13.1 10.6 70 3.0 S 17 19 9 10 1016.9 - 0.0
24/06:30pm 17.5 15.4 11.1 66 3.5 S 13 15 7 8 1016.4 - 0.0
24/06:00pm 18.0 15.9 11.1 64 3.8 S 13 13 7 7 1016.0 1015.7 0.0
24/05:30pm 19.4 17.6 10.7 57 4.8 SSW 11 13 6 7 1015.5 - 0.0
24/05:00pm 21.8 19.5 10.6 49 6.2 SW 13 17 7 9 1015.2 - 0.0
24/04:30pm 22.6 19.7 11.0 48 6.5 SW 17 20 9 11 1015.1 - 0.0
24/04:00pm 23.3 20.3 10.7 45 7.1 SSW 17 22 9 12 1014.9 - 0.0
24/03:30pm 23.6 20.7 11.0 45 7.1 SW 17 24 9 13 1014.8 - 0.0
24/03:00pm 23.7 20.3 10.4 43 7.4 SW 19 30 10 16 1014.7 1014.5 0.0
24/02:30pm 23.9 19.8 10.2 42 7.6 SW 22 32 12 17 1014.7 - 0.0
24/02:00pm 24.1 19.7 10.4 42 7.7 WSW 24 30 13 16 1014.6 - 0.0
24/01:30pm 24.0 20.2 9.2 39 8.1 SSW 19 28 10 15 1014.7 - 0.0
24/01:00pm 24.0 20.0 8.4 37 8.4 SSW 19 26 10 14 1014.8 - 0.0
24/12:30pm 24.2 20.8 9.0 38 8.3 WSW 17 24 9 13 1015.0 - 0.0
24/12:00pm 24.1 21.6 6.4 32 9.2 SW 9 17 5 9 1015.2 1015.0 0.0
24/11:30am 23.6 22.2 7.3 35 8.6 NW 4 9 2 5 1015.7 - 0.0
24/11:00am 21.6 20.0 7.8 41 7.3 SSW 6 9 3 5 1016.2 - 0.0
24/10:30am 21.1 19.3 7.3 41 7.2 W 6 9 3 5 1016.5 - 0.0
24/10:00am 19.9 18.3 8.6 48 6.0 N 7 11 4 6 1016.4 - 0.0
24/09:30am 18.5 18.4 9.3 55 4.9 CALM 0 6 0 3 1016.4 - 0.0
24/09:00am 15.4 14.9 7.7 60 3.9 CALM 0 0 0 0 1016.4 1016.1 0.0
24/08:30am 14.1 13.8 8.7 70 2.8 CALM 0 0 0 0 1016.1 - 0.0
24/08:00am 10.8 10.7 9.6 92 0.6 CALM 0 0 0 0 1015.7 - 0.0
24/07:30am 8.8 8.5 8.5 98 0.1 CALM 0 0 0 0 1015.3 - 0.0
24/07:00am 7.5 6.8 7.1 97 0.2 CALM 0 0 0 0 1015.0 - 0.0
24/06:30am 7.5 6.8 6.9 96 0.3 CALM 0 0 0 0 1014.7 - 0.0
24/06:00am 8.1 7.4 6.9 92 0.6 CALM 0 0 0 0 1014.7 1014.5 0.0
24/05:30am 8.5 7.9 7.3 92 0.6 CALM 0 0 0 0 1014.7 - 0.0
24/05:00am 8.3 7.6 6.9 91 0.7 CALM 0 0 0 0 1014.5 - 0.0
24/04:30am 9.2 8.6 7.5 89 0.8 CALM 0 0 0 0 1014.5 - 0.0
24/04:00am 9.5 8.5 7.4 87 1.0 ESE 2 6 1 3 1014.4 - 0.0
24/03:30am 10.1 9.2 7.9 86 1.1 ESE 2 9 1 5 1014.5 - 0.0
24/03:00am 10.5 10.1 8.3 86 1.1 CALM 0 0 0 0 1014.6 1014.4 0.0
24/02:30am 10.3 9.9 8.2 87 1.0 CALM 0 0 0 0 1015.0 - 0.0
24/02:00am 10.1 8.7 7.2 82 1.4 S 4 7 2 4 1015.1 - 0.0
24/01:30am 10.2 9.4 6.7 79 1.7 CALM 0 0 0 0 1015.3 - 0.0
24/01:00am 11.2 10.5 6.9 75 2.1 CALM 0 0 0 0 1015.4 - 0.0
24/12:30am 11.2 10.8 8.1 81 1.5 CALM 0 0 0 0 1015.6 - 0.0
24/12:00am 11.0 10.3 7.1 77 1.9 CALM 0 0 0 0 1015.5 1015.3 0.0
 
Date/Time
EST
Temp
°C
App
Temp
°C
Dew
Point
Rel
Hum
%
Delta-T
°C
Wind Press
QNH
hPa
Press
MSL
hPa
Rain
since 9 am
mm
Dir
 
Spd
km/h
Gust
km/h
Spd
kts
Gust
kts
23/11:30pm 11.0 10.6 8.2 83 1.4 CALM 0 0 0 0 1015.7 - 0.0
23/11:00pm 10.5 9.8 7.0 79 1.7 CALM 0 0 0 0 1015.8 - 0.0
23/10:30pm 10.8 10.1 7.1 78 1.8 CALM 0 0 0 0 1016.2 - 0.0
23/10:00pm 12.9 12.3 7.6 70 2.6 CALM 0 0 0 0 1016.2 - 0.0
23/09:30pm 13.8 12.5 9.3 74 2.3 S 6 7 3 4 1016.3 - 0.0
23/09:00pm 14.6 14.4 9.0 69 2.9 CALM 0 0 0 0 1016.2 1015.9 0.0
23/08:30pm 13.6 13.3 8.7 72 2.5 CALM 0 0 0 0 1016.2 - 0.0
23/08:00pm 13.8 13.4 8.4 70 2.7 CALM 0 0 0 0 1016.2 - 0.0
23/07:30pm 16.2 15.3 9.2 63 3.7 N 4 7 2 4 1016.1 - 0.0
23/07:00pm 16.9 16.5 8.1 56 4.5 CALM 0 0 0 0 1016.0 - 0.0
23/06:30pm 17.3 16.7 7.6 53 5.0 CALM 0 0 0 0 1016.0 - 0.0
23/06:00pm 18.8 17.0 7.9 49 5.7 N 7 7 4 4 1015.6 1015.4 0.0
23/05:30pm 18.9 17.1 8.0 49 5.7 N 7 7 4 4 1015.6 - 0.0
23/05:00pm 21.7 21.4 10.2 48 6.3 NNW 2 7 1 4 1015.5 - 0.0
23/04:30pm 25.5 25.3 8.9 35 9.1 CALM 0 0 0 0 1015.4 - 0.0
23/04:00pm 24.9 24.3 7.5 33 9.3 CALM 0 0 0 0 1015.3 - 0.0
23/03:30pm 24.4 23.7 7.1 33 9.2 CALM 0 7 0 4 1015.5 - 0.0
23/03:00pm 24.9 24.4 8.0 34 9.1 CALM 0 0 0 0 1015.6 1015.4 0.0
23/02:30pm 24.7 23.9 6.4 31 9.6 CALM 0 6 0 3 1015.7 - 0.0
23/02:00pm 24.4 23.6 8.0 35 8.8 N 2 7 1 4 1016.0 - 0.0
23/01:30pm 23.2 22.3 9.2 41 7.6 SE 4 9 2 5 1016.3 - 0.0
23/01:00pm 22.3 20.9 8.8 42 7.3 SSE 6 11 3 6 1016.8 - 0.0
23/12:30pm 22.3 21.5 9.5 44 7.0 W 4 9 2 5 1017.2 - 0.0
23/12:00pm 21.1 19.9 9.4 47 6.3 SW 6 9 3 5 1017.7 1017.5 0.0
23/11:30am 20.6 20.1 9.2 48 6.1 N 2 6 1 3 1018.3 - 0.0
23/11:00am 19.1 17.7 9.0 52 5.4 NW 6 9 3 5 1018.7 - 0.0
23/10:30am 17.7 16.3 8.8 56 4.7 WNW 6 11 3 6 1019.2 - 0.0
23/10:00am 16.3 15.7 9.0 62 3.8 W 2 7 1 4 1019.4 - 0.0
23/09:30am 14.3 12.7 8.0 66 3.2 S 6 9 3 5 1019.7 - 0.0
23/09:00am 13.1 11.1 7.3 68 2.9 ESE 7 9 4 5 1019.8 1019.5 0.0
23/08:30am 11.6 10.0 7.9 78 1.8 E 6 9 3 5 1019.9 - 0.0
23/08:00am 9.7 7.4 7.5 86 1.1 S 9 11 5 6 1019.7 - 0.0
23/07:30am 8.3 5.9 7.1 92 0.6 S 9 13 5 7 1019.3 - 0.0
23/07:00am 6.3 5.3 5.6 95 0.3 CALM 0 0 0 0 1019.1 - 0.0
23/06:30am 5.6 4.1 5.0 96 0.3 ESE 2 6 1 3 1019.0 - 0.0
23/06:00am 5.9 4.9 5.8 99 0.0 CALM 0 0 0 0 1018.8 1018.6 0.0
23/05:30am 5.5 4.3 4.8 95 0.3 CALM 0 0 0 0 1018.5 - 0.0
23/05:00am 6.2 4.7 5.2 93 0.4 SW 2 7 1 4 1018.3 - 0.0
23/04:30am 7.3 4.6 7.2 99 0.0 E 11 15 6 8 1018.2 - 0.0
23/04:00am 5.9 4.7 4.7 92 0.5 CALM 0 4 0 2 1018.3 - 0.0
23/03:30am 6.1 3.7 4.4 89 0.7 S 6 9 3 5 1018.0 - 0.0
23/03:00am 7.2 4.6 6.3 94 0.4 E 9 15 5 8 1018.0 1017.8 0.0
23/02:30am 6.3 3.5 5.1 92 0.5 SSW 9 11 5 6 1018.2 - 0.0
23/02:00am 6.8 4.3 5.0 88 0.8 S 7 9 4 5 1018.3 - 0.0
23/01:30am 8.2 6.1 5.8 85 1.1 E 6 9 3 5 1018.5 - 0.0
23/01:00am 8.1 6.0 6.7 91 0.7 SE 7 9 4 5 1018.8 - 0.0
23/12:30am 7.1 5.7 5.7 91 0.6 E 2 9 1 5 1018.8 - 0.0
23/12:00am 7.5 6.1 5.6 88 0.9 E 2 6 1 3 1018.9 1018.7 0.0
 
Date/Time
EST
Temp
°C
App
Temp
°C
Dew
Point
Rel
Hum
%
Delta-T
°C
Wind Press
QNH
hPa
Press
MSL
hPa
Rain
since 9 am
mm
Dir
 
Spd
km/h
Gust
km/h
Spd
kts
Gust
kts
22/11:30pm 7.3 6.4 5.9 91 0.6 CALM 0 0 0 0 1019.1 - 0.0
22/11:00pm 7.2 6.2 5.7 90 0.7 CALM 0 0 0 0 1019.2 - 0.0
22/10:30pm 8.5 7.0 6.6 88 0.9 ENE 4 7 2 4 1019.3 - 0.0
22/10:00pm 7.6 5.5 5.7 88 0.9 ENE 6 6 3 3 1019.4 - 0.0
22/09:30pm 9.3 7.2 6.0 80 1.5 SSE 6 7 3 4 1019.2 - 0.0
22/09:00pm 9.0 7.1 6.6 85 1.1 SW 6 7 3 4 1019.3 1019.1 0.0
22/08:30pm 11.4 10.1 7.7 78 1.8 SSE 4 7 2 4 1019.2 - 0.0
22/08:00pm 10.3 9.7 7.2 81 1.5 CALM 0 0 0 0 1019.3 - 0.0

Other Formats:

Comma delimited format used in spreadsheet applications
http://www.bom.gov.au/fwo/IDN60801/IDN60801.95721.axf

JavaScript Object Notation format (JSON) in row-major order
http://www.bom.gov.au/fwo/IDN60801/IDN60801.95721.json